createdAt,value
2023-03-29T00:01:06.848Z,0.41
2023-03-29T00:03:35.275Z,0.41
2023-03-29T00:06:04.228Z,0.40
2023-03-29T00:08:38.163Z,0.40
2023-03-29T00:11:07.721Z,0.40
2023-03-29T00:13:36.264Z,0.40
2023-03-29T00:16:04.916Z,0.38
2023-03-29T00:18:33.429Z,0.36
2023-03-29T00:21:02.627Z,0.34
2023-03-29T00:23:31.427Z,0.32
2023-03-29T00:26:00.000Z,0.27
2023-03-29T00:28:28.414Z,0.23
2023-03-29T00:31:09.740Z,0.17
2023-03-29T00:33:39.788Z,0.11
2023-03-29T00:36:10.426Z,0.04
2023-03-29T00:38:40.021Z,-0.03
2023-03-29T00:41:09.326Z,-0.10
2023-03-29T00:44:06.832Z,-0.18
2023-03-29T00:46:37.277Z,-0.28
2023-03-29T00:49:12.971Z,-0.38
2023-03-29T00:51:43.510Z,-0.46
2023-03-29T00:54:18.874Z,-0.54
2023-03-29T00:56:51.386Z,-0.62
2023-03-29T00:59:24.807Z,-0.69
2023-03-29T01:02:22.968Z,-0.74
2023-03-29T01:04:59.435Z,-0.79
2023-03-29T01:07:35.474Z,-0.83
2023-03-29T01:10:17.485Z,-0.86
2023-03-29T01:12:53.473Z,-0.86
2023-03-29T01:15:28.522Z,-0.86
2023-03-29T01:17:58.592Z,-0.86
2023-03-29T01:20:52.717Z,-0.82
2023-03-29T01:23:46.081Z,-0.78
2023-03-29T01:26:32.687Z,-0.72
2023-03-29T01:29:23.493Z,-0.64
2023-03-29T01:31:58.278Z,-0.56
2023-03-29T01:34:43.578Z,-0.50
2023-03-29T01:37:44.333Z,-0.43
2023-03-29T01:40:12.815Z,-0.35
2023-03-29T01:42:53.482Z,-0.29
2023-03-29T01:45:40.216Z,-0.24
2023-03-29T01:48:20.360Z,-0.22
2023-03-29T01:51:05.930Z,-0.23
2023-03-29T01:53:44.345Z,-0.25
2023-03-29T01:56:21.938Z,-0.29
2023-03-29T01:58:58.474Z,-0.33
2023-03-29T02:01:30.986Z,-0.37
2023-03-29T02:04:04.593Z,-0.41
2023-03-29T02:06:36.239Z,-0.46
2023-03-29T02:09:05.238Z,-0.49
2023-03-29T02:11:35.124Z,-0.54
2023-03-29T02:14:03.941Z,-0.57
2023-03-29T02:16:39.436Z,-0.61
2023-03-29T02:19:09.906Z,-0.66
2023-03-29T02:22:01.678Z,-0.71
2023-03-29T02:24:33.808Z,-0.75
2023-03-29T02:27:03.209Z,-0.76
2023-03-29T02:29:31.993Z,-0.75
2023-03-29T02:32:25.108Z,-0.73
2023-03-29T02:35:14.429Z,-0.70
2023-03-29T02:37:46.694Z,-0.65
2023-03-29T02:40:17.482Z,-0.60
2023-03-29T02:42:49.083Z,-0.57
2023-03-29T02:45:18.798Z,-0.52
2023-03-29T02:47:51.896Z,-0.50
2023-03-29T02:50:21.153Z,-0.49
2023-03-29T02:52:59.397Z,-0.48
2023-03-29T02:55:34.859Z,-0.48
2023-03-29T02:58:13.575Z,-0.48
2023-03-29T03:00:46.352Z,-0.49
2023-03-29T03:03:18.737Z,-0.52
2023-03-29T03:05:49.459Z,-0.54
2023-03-29T03:08:18.975Z,-0.58
2023-03-29T03:10:48.470Z,-0.61
2023-03-29T03:13:17.364Z,-0.64
2023-03-29T03:15:49.121Z,-0.67
2023-03-29T03:18:18.520Z,-0.68
2023-03-29T03:20:57.495Z,-0.68
2023-03-29T03:23:25.619Z,-0.67
2023-03-29T03:25:55.391Z,-0.67
2023-03-29T03:28:24.621Z,-0.65
2023-03-29T03:30:54.378Z,-0.63
2023-03-29T03:33:27.198Z,-0.60
2023-03-29T03:36:14.283Z,-0.54
2023-03-29T03:38:44.294Z,-0.48
2023-03-29T03:41:13.684Z,-0.42
2023-03-29T03:43:44.187Z,-0.34
2023-03-29T03:46:13.119Z,-0.26
2023-03-29T03:48:41.970Z,-0.18
2023-03-29T03:51:17.819Z,-0.09
2023-03-29T03:53:46.406Z,-0.01
2023-03-29T03:56:15.296Z,0.06
2023-03-29T03:59:07.326Z,0.13
2023-03-29T04:01:43.861Z,0.19
2023-03-29T04:04:17.846Z,0.25
2023-03-29T04:07:09.845Z,0.29
2023-03-29T04:09:42.430Z,0.28
2023-03-29T04:12:46.745Z,0.27
2023-03-29T04:15:15.324Z,0.25
2023-03-29T04:17:49.046Z,0.23
2023-03-29T04:20:36.151Z,0.19
2023-03-29T04:23:05.254Z,0.16
2023-03-29T04:25:33.622Z,0.12
2023-03-29T04:28:21.492Z,0.09
2023-03-29T04:31:03.836Z,0.06
2023-03-29T04:33:47.747Z,0.05
2023-03-29T04:36:16.430Z,0.05
2023-03-29T04:38:47.800Z,0.07
2023-03-29T04:41:16.954Z,0.09
2023-03-29T04:43:59.461Z,0.10
2023-03-29T04:46:32.552Z,0.12
2023-03-29T04:49:27.241Z,0.14
2023-03-29T04:51:56.142Z,0.16
2023-03-29T04:54:27.904Z,0.18
2023-03-29T04:57:02.301Z,0.22
2023-03-29T04:59:49.436Z,0.25
2023-03-29T05:02:25.418Z,0.29
2023-03-29T05:04:54.394Z,0.32
2023-03-29T05:07:23.172Z,0.38
2023-03-29T05:09:52.164Z,0.42
2023-03-29T05:12:22.607Z,0.46
2023-03-29T05:14:54.555Z,0.51
2023-03-29T05:17:27.747Z,0.56
2023-03-29T05:20:01.619Z,0.61
2023-03-29T05:22:29.933Z,0.65
2023-03-29T05:24:59.661Z,0.71
2023-03-29T05:27:29.969Z,0.74
2023-03-29T05:30:10.639Z,0.79
2023-03-29T05:33:05.923Z,0.85
2023-03-29T05:35:36.244Z,1.09
2023-03-29T05:38:06.696Z,1.81
2023-03-29T05:40:36.002Z,2.86
2023-03-29T05:43:35.199Z,4.38
2023-03-29T05:46:03.620Z,5.68
2023-03-29T05:48:32.876Z,6.71
2023-03-29T05:51:02.465Z,7.03
2023-03-29T05:53:31.702Z,7.05
2023-03-29T05:56:02.417Z,7.07
2023-03-29T05:58:31.544Z,7.13
2023-03-29T06:01:00.776Z,6.88
2023-03-29T06:03:38.648Z,6.35
2023-03-29T06:06:09.730Z,5.87
2023-03-29T06:08:38.343Z,5.54
2023-03-29T06:11:29.767Z,5.21
2023-03-29T06:14:16.573Z,4.92
2023-03-29T06:16:50.349Z,4.67
2023-03-29T06:19:19.477Z,4.53
2023-03-29T06:21:48.288Z,4.46
2023-03-29T06:24:21.150Z,4.45
2023-03-29T06:26:53.524Z,4.57
2023-03-29T06:29:22.310Z,4.82
2023-03-29T06:31:51.865Z,5.27
2023-03-29T06:34:53.398Z,6.07
2023-03-29T06:37:49.849Z,6.80
2023-03-29T06:40:34.583Z,7.40
2023-03-29T06:43:02.786Z,7.93
2023-03-29T06:45:57.172Z,8.16
2023-03-29T06:48:35.253Z,8.13
2023-03-29T06:51:04.695Z,8.00
2023-03-29T06:53:34.264Z,7.84
2023-03-29T06:56:09.375Z,7.68
2023-03-29T06:58:45.293Z,7.53
2023-03-29T07:01:43.436Z,8.11
2023-03-29T07:04:19.439Z,8.40
2023-03-29T07:07:12.154Z,8.40
2023-03-29T07:09:40.616Z,8.63
2023-03-29T07:12:44.846Z,9.26
2023-03-29T07:15:14.238Z,10.01
2023-03-29T07:18:03.720Z,10.88
2023-03-29T07:20:33.970Z,11.61
2023-03-29T07:23:09.600Z,11.68
2023-03-29T07:25:38.572Z,11.67
2023-03-29T07:28:07.727Z,12.23
2023-03-29T07:30:38.370Z,12.98
2023-03-29T07:33:13.530Z,13.26
2023-03-29T07:35:51.183Z,13.82
2023-03-29T07:38:19.630Z,14.01
2023-03-29T07:40:52.239Z,14.44
2023-03-29T07:43:47.098Z,14.83
2023-03-29T07:46:17.584Z,14.33
2023-03-29T07:48:45.914Z,13.69
2023-03-29T07:51:17.012Z,13.45
2023-03-29T07:53:46.900Z,13.31
2023-03-29T07:56:33.874Z,12.97
2023-03-29T07:59:34.253Z,12.58
2023-03-29T08:02:14.651Z,12.68
2023-03-29T08:04:47.091Z,12.70
2023-03-29T08:07:21.572Z,12.89
2023-03-29T08:10:14.113Z,13.06
2023-03-29T08:13:07.404Z,13.03
2023-03-29T08:15:48.759Z,12.86
2023-03-29T08:18:46.385Z,12.33
2023-03-29T08:21:15.114Z,12.42
2023-03-29T08:23:45.335Z,12.31
2023-03-29T08:26:18.325Z,12.04
2023-03-29T08:28:47.932Z,11.87
2023-03-29T08:31:16.968Z,11.75
2023-03-29T08:33:46.490Z,11.81
2023-03-29T08:36:27.915Z,11.85
2023-03-29T08:38:58.037Z,11.35
2023-03-29T08:41:39.112Z,10.85
2023-03-29T08:44:34.937Z,10.41
2023-03-29T08:47:09.386Z,9.99
2023-03-29T08:49:45.844Z,9.83
2023-03-29T08:52:23.624Z,9.68
2023-03-29T08:54:57.344Z,9.49
2023-03-29T08:57:55.002Z,9.32
2023-03-29T09:00:41.975Z,9.12
2023-03-29T09:03:38.555Z,8.97
2023-03-29T09:06:12.963Z,8.91
2023-03-29T09:08:46.337Z,8.87
2023-03-29T09:11:23.987Z,8.73
2023-03-29T09:14:11.185Z,8.54
2023-03-29T09:17:16.946Z,8.38
2023-03-29T09:20:14.303Z,8.29
2023-03-29T09:22:55.373Z,8.29
2023-03-29T09:26:04.130Z,8.15
2023-03-29T09:29:04.731Z,8.00
2023-03-29T09:31:39.338Z,7.80
2023-03-29T09:34:21.664Z,7.47
2023-03-29T09:37:10.826Z,7.10
2023-03-29T09:39:41.229Z,6.73
2023-03-29T09:42:17.010Z,6.35
2023-03-29T09:44:51.058Z,6.07
2023-03-29T09:47:35.393Z,5.73
2023-03-29T09:50:30.180Z,5.33
2023-03-29T09:53:00.705Z,4.97
2023-03-29T09:55:36.659Z,4.66
2023-03-29T09:58:15.392Z,4.31
2023-03-29T10:00:49.184Z,4.04
2023-03-29T10:03:20.413Z,3.84
2023-03-29T10:05:58.947Z,3.76
2023-03-29T10:08:28.789Z,3.77
2023-03-29T10:11:01.884Z,3.97
2023-03-29T10:13:33.406Z,4.44
2023-03-29T10:16:08.018Z,5.14
2023-03-29T10:18:42.673Z,5.97
2023-03-29T10:21:22.195Z,6.70
2023-03-29T10:23:58.590Z,7.48
2023-03-29T10:26:32.909Z,8.26
2023-03-29T10:29:04.845Z,9.08
2023-03-29T10:31:34.157Z,9.74
2023-03-29T10:34:05.378Z,9.99
2023-03-29T10:36:34.176Z,10.08
2023-03-29T10:39:06.236Z,10.12
2023-03-29T10:41:36.133Z,10.05
2023-03-29T10:44:05.152Z,10.04
2023-03-29T10:46:41.972Z,9.98
2023-03-29T10:49:20.831Z,10.14
2023-03-29T10:51:50.877Z,10.17
2023-03-29T10:54:22.707Z,10.04
2023-03-29T10:57:00.583Z,9.60
2023-03-29T10:59:30.450Z,9.11
2023-03-29T11:02:14.192Z,8.72
2023-03-29T11:04:57.030Z,8.52
2023-03-29T11:07:59.299Z,8.32
2023-03-29T11:10:39.741Z,8.21
2023-03-29T11:13:10.886Z,8.22
2023-03-29T11:15:43.993Z,8.21
2023-03-29T11:18:37.137Z,8.32
2023-03-29T11:21:51.905Z,8.46
2023-03-29T11:24:20.282Z,8.67
2023-03-29T11:26:57.882Z,8.66
2023-03-29T11:29:40.796Z,8.72
2023-03-29T11:32:37.560Z,8.86
2023-03-29T11:35:30.572Z,9.05
2023-03-29T11:38:11.160Z,9.17
2023-03-29T11:40:53.479Z,9.11
2023-03-29T11:43:33.524Z,9.01
2023-03-29T11:46:14.121Z,8.96
2023-03-29T11:48:50.356Z,8.91
2023-03-29T11:51:37.370Z,9.09
2023-03-29T11:54:25.614Z,9.39
2023-03-29T11:56:56.915Z,9.50
2023-03-29T11:59:36.470Z,9.39
2023-03-29T12:02:18.825Z,9.29
2023-03-29T12:04:52.415Z,9.28
2023-03-29T12:07:30.074Z,9.24
2023-03-29T12:10:39.251Z,9.28
2023-03-29T12:13:36.290Z,9.47
2023-03-29T12:16:13.839Z,9.61
2023-03-29T12:18:56.519Z,9.70
2023-03-29T12:21:28.874Z,9.86
2023-03-29T12:23:58.381Z,10.05
2023-03-29T12:26:46.414Z,10.39
2023-03-29T12:29:17.357Z,10.59
2023-03-29T12:32:16.974Z,10.51
2023-03-29T12:35:14.338Z,10.23
2023-03-29T12:38:24.537Z,10.27
2023-03-29T12:41:23.692Z,10.54
2023-03-29T12:44:24.640Z,10.58
2023-03-29T12:47:23.631Z,10.48
2023-03-29T12:49:56.645Z,10.44
2023-03-29T12:52:30.735Z,10.58
2023-03-29T12:55:01.807Z,10.78
2023-03-29T12:57:42.242Z,10.96
2023-03-29T13:00:22.701Z,11.04
2023-03-29T13:03:25.500Z,11.00
2023-03-29T13:06:02.806Z,10.74
2023-03-29T13:08:37.120Z,10.74
2023-03-29T13:11:07.560Z,10.82
2023-03-29T13:13:38.455Z,10.88
2023-03-29T13:16:13.499Z,10.63
2023-03-29T13:18:56.623Z,10.34
2023-03-29T13:21:34.324Z,10.40
2023-03-29T13:24:21.227Z,10.45
2023-03-29T13:27:25.250Z,10.63
2023-03-29T13:29:56.492Z,10.80
2023-03-29T13:32:31.233Z,10.56
2023-03-29T13:35:32.280Z,10.16
2023-03-29T13:38:23.113Z,9.88
2023-03-29T13:40:54.619Z,9.54
2023-03-29T13:43:33.224Z,9.26
2023-03-29T13:46:01.496Z,9.08
2023-03-29T13:48:47.818Z,9.11
2023-03-29T13:51:19.172Z,9.26
2023-03-29T13:54:01.093Z,9.60
2023-03-29T13:56:37.306Z,9.68
2023-03-29T13:59:11.234Z,9.86
2023-03-29T14:01:43.628Z,9.97
2023-03-29T14:04:22.428Z,9.96
2023-03-29T14:06:56.583Z,9.90
2023-03-29T14:09:33.468Z,9.91
2023-03-29T14:12:02.321Z,9.84
2023-03-29T14:14:32.288Z,9.50
2023-03-29T14:17:01.044Z,9.04
2023-03-29T14:19:33.200Z,8.73
2023-03-29T14:22:03.415Z,8.48
2023-03-29T14:24:38.704Z,8.25
2023-03-29T14:27:10.312Z,7.97
2023-03-29T14:29:38.779Z,7.66
2023-03-29T14:32:11.986Z,7.44
2023-03-29T14:34:40.874Z,7.28
2023-03-29T14:37:24.015Z,7.22
2023-03-29T14:39:52.981Z,7.19
2023-03-29T14:42:26.911Z,7.19
2023-03-29T14:45:04.289Z,7.17
2023-03-29T14:47:34.215Z,7.11
2023-03-29T14:50:04.262Z,7.03
2023-03-29T14:52:33.824Z,6.93
2023-03-29T14:55:04.401Z,6.78
2023-03-29T14:57:36.578Z,6.62
2023-03-29T15:00:19.554Z,6.48
2023-03-29T15:02:58.189Z,6.34
2023-03-29T15:05:34.616Z,6.13
2023-03-29T15:08:04.236Z,6.04
2023-03-29T15:10:35.629Z,5.96
2023-03-29T15:13:06.766Z,5.89
2023-03-29T15:15:38.619Z,5.84
2023-03-29T15:18:10.078Z,5.76
2023-03-29T15:20:40.169Z,5.68
2023-03-29T15:23:08.344Z,5.61
2023-03-29T15:25:52.029Z,5.52
2023-03-29T15:28:32.764Z,5.43
2023-03-29T15:31:08.086Z,5.36
2023-03-29T15:33:38.987Z,5.28
2023-03-29T15:36:10.365Z,5.21
2023-03-29T15:38:44.753Z,5.15
2023-03-29T15:41:14.662Z,5.10
2023-03-29T15:43:43.307Z,5.06
2023-03-29T15:46:14.136Z,5.01
2023-03-29T15:48:43.337Z,4.96
2023-03-29T15:51:13.179Z,4.91
2023-03-29T15:53:42.764Z,4.86
2023-03-29T15:56:18.289Z,4.81
2023-03-29T15:58:47.725Z,4.76
2023-03-29T16:01:36.767Z,4.69
2023-03-29T16:04:12.575Z,4.60
2023-03-29T16:06:41.714Z,4.51
2023-03-29T16:09:12.063Z,4.44
2023-03-29T16:11:41.943Z,4.37
2023-03-29T16:14:23.341Z,4.31
2023-03-29T16:16:52.631Z,4.21
2023-03-29T16:19:22.191Z,4.13
2023-03-29T16:21:50.525Z,4.05
2023-03-29T16:24:27.414Z,3.97
2023-03-29T16:26:56.709Z,3.89
2023-03-29T16:29:25.745Z,3.82
2023-03-29T16:31:54.915Z,3.76
2023-03-29T16:34:23.695Z,3.69
2023-03-29T16:36:53.237Z,3.62
2023-03-29T16:39:21.746Z,3.56
2023-03-29T16:41:50.564Z,3.51
2023-03-29T16:44:23.929Z,3.44
2023-03-29T16:46:57.973Z,3.38
2023-03-29T16:49:26.245Z,3.33
2023-03-29T16:51:54.527Z,3.27
2023-03-29T16:54:25.876Z,3.21
2023-03-29T16:56:54.394Z,3.16
2023-03-29T16:59:23.140Z,3.09
2023-03-29T17:01:51.713Z,3.02
2023-03-29T17:04:20.561Z,2.95
2023-03-29T17:06:48.893Z,2.90
2023-03-29T17:09:17.736Z,2.85
2023-03-29T17:11:46.464Z,2.79
2023-03-29T17:14:15.381Z,2.74
2023-03-29T17:16:43.911Z,2.69
2023-03-29T17:19:12.739Z,2.63
2023-03-29T17:21:41.318Z,2.58
2023-03-29T17:24:10.003Z,2.52
2023-03-29T17:26:38.497Z,2.45
2023-03-29T17:29:06.761Z,2.36
2023-03-29T17:31:36.407Z,2.27
2023-03-29T17:34:07.923Z,2.19
2023-03-29T17:36:37.577Z,2.10
2023-03-29T17:39:10.009Z,2.02
2023-03-29T17:41:38.183Z,1.92
2023-03-29T17:44:07.651Z,1.84
2023-03-29T17:46:38.079Z,1.75
2023-03-29T17:49:06.596Z,1.66
2023-03-29T17:51:34.982Z,1.57
2023-03-29T17:54:04.071Z,1.50
2023-03-29T17:56:32.757Z,1.42
2023-03-29T17:59:01.082Z,1.33
2023-03-29T18:01:29.561Z,1.27
2023-03-29T18:03:57.798Z,1.21
2023-03-29T18:06:27.193Z,1.13
2023-03-29T18:08:56.625Z,1.05
2023-03-29T18:11:25.774Z,0.99
2023-03-29T18:13:54.906Z,0.93
2023-03-29T18:16:23.728Z,0.90
2023-03-29T18:18:52.374Z,0.85
2023-03-29T18:21:23.102Z,0.81
2023-03-29T18:23:54.362Z,0.75
2023-03-29T18:26:24.421Z,0.71
2023-03-29T18:28:53.404Z,0.67
2023-03-29T18:31:22.721Z,0.63
2023-03-29T18:33:51.145Z,0.58
2023-03-29T18:36:19.881Z,0.52
2023-03-29T18:38:48.211Z,0.45
2023-03-29T18:41:17.172Z,0.38
2023-03-29T18:43:47.022Z,0.29
2023-03-29T18:46:16.143Z,0.23
2023-03-29T18:48:44.501Z,0.16
2023-03-29T18:51:15.137Z,0.11
2023-03-29T18:53:44.531Z,0.04
2023-03-29T18:56:12.919Z,-0.02
2023-03-29T18:58:41.198Z,-0.07
2023-03-29T19:01:10.986Z,-0.12
2023-03-29T19:03:39.745Z,-0.17
2023-03-29T19:06:14.408Z,-0.22
2023-03-29T19:08:42.567Z,-0.28
2023-03-29T19:11:14.351Z,-0.33
2023-03-29T19:13:43.249Z,-0.40
2023-03-29T19:16:12.607Z,-0.44
2023-03-29T19:18:42.251Z,-0.49
2023-03-29T19:21:10.844Z,-0.53
2023-03-29T19:23:42.695Z,-0.59
2023-03-29T19:26:11.791Z,-0.64
2023-03-29T19:28:42.424Z,-0.70
2023-03-29T19:31:10.767Z,-0.75
2023-03-29T19:33:41.340Z,-0.79
2023-03-29T19:36:09.730Z,-0.84
2023-03-29T19:38:38.058Z,-0.89
2023-03-29T19:41:10.251Z,-0.94
2023-03-29T19:43:38.690Z,-0.98
2023-03-29T19:46:10.618Z,-1.04
2023-03-29T19:48:39.922Z,-1.09
2023-03-29T19:51:08.993Z,-1.14
2023-03-29T19:53:38.882Z,-1.17
2023-03-29T19:56:11.099Z,-1.19
2023-03-29T19:58:39.557Z,-1.22
2023-03-29T20:01:08.047Z,-1.26
2023-03-29T20:03:36.580Z,-1.30
2023-03-29T20:06:05.200Z,-1.34
2023-03-29T20:08:33.481Z,-1.38
2023-03-29T20:11:04.146Z,-1.42
2023-03-29T20:13:38.773Z,-1.46
2023-03-29T20:16:14.892Z,-1.48
2023-03-29T20:18:47.076Z,-1.50
2023-03-29T20:21:18.936Z,-1.52
2023-03-29T20:23:47.719Z,-1.54
2023-03-29T20:26:16.093Z,-1.55
2023-03-29T20:28:44.677Z,-1.56
2023-03-29T20:31:13.367Z,-1.57
2023-03-29T20:33:44.507Z,-1.58
2023-03-29T20:36:12.770Z,-1.60
2023-03-29T20:38:41.167Z,-1.61
2023-03-29T20:41:11.083Z,-1.62
2023-03-29T20:43:41.098Z,-1.64
2023-03-29T20:46:18.468Z,-1.66
2023-03-29T20:48:53.624Z,-1.68
2023-03-29T20:51:28.249Z,-1.69
2023-03-29T20:54:04.944Z,-1.72
2023-03-29T20:56:40.170Z,-1.74
2023-03-29T20:59:10.850Z,-1.77
2023-03-29T21:01:40.997Z,-1.79
2023-03-29T21:04:11.155Z,-1.81
2023-03-29T21:06:39.895Z,-1.83
2023-03-29T21:09:08.741Z,-1.83
2023-03-29T21:11:36.992Z,-1.85
2023-03-29T21:14:05.280Z,-1.85
2023-03-29T21:16:33.546Z,-1.89
2023-03-29T21:19:01.831Z,-1.91
2023-03-29T21:21:30.210Z,-1.93
2023-03-29T21:23:58.386Z,-1.94
2023-03-29T21:26:27.371Z,-1.96
2023-03-29T21:28:55.543Z,-1.97
2023-03-29T21:31:24.211Z,-2.00
2023-03-29T21:33:54.962Z,-2.02
2023-03-29T21:36:23.884Z,-2.03
2023-03-29T21:38:52.851Z,-2.04
2023-03-29T21:41:22.060Z,-2.05
2023-03-29T21:43:50.543Z,-2.04
2023-03-29T21:46:18.768Z,-2.06
2023-03-29T21:48:47.068Z,-2.08
2023-03-29T21:51:15.557Z,-2.11
2023-03-29T21:53:44.455Z,-2.16
2023-03-29T21:56:13.348Z,-2.19
2023-03-29T21:58:42.056Z,-2.22
2023-03-29T22:01:10.689Z,-2.25
2023-03-29T22:03:39.207Z,-2.27
2023-03-29T22:06:09.690Z,-2.30
2023-03-29T22:08:41.083Z,-2.32
2023-03-29T22:11:14.033Z,-2.32
2023-03-29T22:13:43.569Z,-2.33
2023-03-29T22:16:18.896Z,-2.34
2023-03-29T22:18:52.727Z,-2.34
2023-03-29T22:21:26.736Z,-2.35
2023-03-29T22:23:57.192Z,-2.35
2023-03-29T22:26:28.611Z,-2.36
2023-03-29T22:28:58.994Z,-2.37
2023-03-29T22:31:29.338Z,-2.38
2023-03-29T22:33:58.569Z,-2.37
2023-03-29T22:36:30.121Z,-2.35
2023-03-29T22:38:58.518Z,-2.35
2023-03-29T22:41:27.834Z,-2.38
2023-03-29T22:43:58.347Z,-2.40
2023-03-29T22:46:27.588Z,-2.43
2023-03-29T22:48:56.007Z,-2.45
2023-03-29T22:51:24.382Z,-2.46
2023-03-29T22:53:52.595Z,-2.49
2023-03-29T22:56:22.104Z,-2.50
2023-03-29T22:58:51.264Z,-2.50
2023-03-29T23:01:19.793Z,-2.52
2023-03-29T23:03:48.146Z,-2.53
2023-03-29T23:06:16.395Z,-2.55
2023-03-29T23:08:44.808Z,-2.54
2023-03-29T23:11:13.266Z,-2.54
2023-03-29T23:13:41.534Z,-2.55
2023-03-29T23:16:10.149Z,-2.54
2023-03-29T23:18:39.006Z,-2.51
2023-03-29T23:21:09.479Z,-2.51
2023-03-29T23:23:38.534Z,-2.52
2023-03-29T23:26:12.124Z,-2.53
2023-03-29T23:28:41.243Z,-2.53
2023-03-29T23:31:18.092Z,-2.52
2023-03-29T23:33:46.690Z,-2.54
2023-03-29T23:36:17.626Z,-2.55
2023-03-29T23:38:47.085Z,-2.55
2023-03-29T23:41:16.869Z,-2.53
2023-03-29T23:43:47.413Z,-2.54
2023-03-29T23:46:19.030Z,-2.55
2023-03-29T23:48:49.310Z,-2.56
2023-03-29T23:51:19.036Z,-2.57
2023-03-29T23:53:47.958Z,-2.61
2023-03-29T23:56:16.642Z,-2.64
2023-03-29T23:58:44.929Z,-2.64
